Terminal Aerodrome Forecast
Issued by NWS Pocatello, ID

Home | Current Version | Previous Version | Text Only | Print | Product List | Glossary On
Versions: 1 2 3 4 5 6 7 8 9 10 11 12 13 14 15 16 17 18 19 20 21 22 23 24 25 26 27 28 29 30 31 32
000
FTUS45 KPIH 162341
TAFIDA
TAF
KIDA 162341Z 1700/1724 19010KT 6SM BR SCT008 BKN015 OVC025
     FM170600 14006KT 4SM BR VCSH SCT004 BKN015 OVC030
     FM170800 14006KT 2SM BR VCSH SCT004 OVC008
     FM171000 11006KT 4SM -FZRA BR SCT002 OVC008
     FM171500 18015KT 4SM -RASN BR SCT001 OVC004=

USA.gov is the U.S. government's official web portal to all federal, state and local government web resources and services.